Time;durP1;ratioP1;P1;durP2;ratioP2;P2;SDS_P1;SDS_P2;PMS_P1;PMS_P2;Temp;Humidity;BMP_temperature;BMP_pressure;BME280_temperature;BME280_humidity;BME280_pressure;Samples;Min_cycle;Max_cycle;Signal;HPM_P1;HPM_P2
2021/09/06 00:01:07;;;;;;;28.70;15.45;;;10.50;92.70;;;;;;5003664;28;20038;-68
2021/09/06 00:03:32;;;;;;;28.42;16.27;;;10.50;93.50;;;;;;5000214;28;20555;-69
2021/09/06 00:05:58;;;;;;;25.70;15.05;;;10.60;94.30;;;;;;5000697;28;20026;-69
2021/09/06 00:08:25;;;;;;;25.30;15.13;;;10.50;94.00;;;;;;4998098;28;20109;-69
2021/09/06 00:11:11;;;;;;;28.40;15.65;;;10.50;93.20;;;;;;4996198;28;20034;-69
2021/09/06 00:13:38;;;;;;;24.67;14.65;;;10.50;93.80;;;;;;5001375;28;20053;-70
2021/09/06 00:16:04;;;;;;;23.98;14.18;;;10.40;93.70;;;;;;5003118;28;20030;-68
2021/09/06 00:18:30;;;;;;;20.88;13.35;;;10.50;94.00;;;;;;5003672;28;20026;-68
2021/09/06 00:20:58;;;;;;;23.20;14.45;;;10.40;93.60;;;;;;4994669;28;20056;-69
2021/09/06 00:23:25;;;;;;;21.98;13.82;;;10.40;93.60;;;;;;5002036;28;20121;-69
2021/09/06 00:25:51;;;;;;;22.92;13.77;;;10.30;93.40;;;;;;5005222;28;20516;-68
2021/09/06 00:28:16;;;;;;;20.52;14.15;;;10.30;93.10;;;;;;5001941;28;20026;-69
2021/09/06 00:30:42;;;;;;;27.50;14.23;;;10.20;93.70;;;;;;5002641;28;20033;-68
2021/09/06 00:33:09;;;;;;;26.23;15.00;;;10.20;94.50;;;;;;5006643;28;20036;-68
2021/09/06 00:35:35;;;;;;;26.88;14.45;;;10.20;94.90;;;;;;5003543;28;20018;-69
2021/09/06 00:38:01;;;;;;;28.83;14.60;;;10.20;95.30;;;;;;5004410;28;20038;-69
2021/09/06 00:40:27;;;;;;;28.45;15.40;;;10.10;95.50;;;;;;5009427;28;20022;-69
2021/09/06 00:42:53;;;;;;;25.33;14.40;;;10.10;95.70;;;;;;5000724;28;20133;-69
2021/09/06 00:45:19;;;;;;;23.23;13.30;;;10.10;95.60;;;;;;5009976;28;20455;-68
2021/09/06 00:47:44;;;;;;;22.02;12.65;;;10.00;95.30;;;;;;5011307;28;20097;-68
2021/09/06 00:50:13;;;;;;;21.02;12.35;;;10.00;94.70;;;;;;5003709;28;20117;-69
2021/09/06 00:52:42;;;;;;;21.52;11.73;;;9.90;94.50;;;;;;5007010;28;20083;-68
2021/09/06 00:55:09;;;;;;;19.48;10.80;;;9.80;93.50;;;;;;5003117;28;20033;-68
2021/09/06 00:57:35;;;;;;;22.48;11.55;;;9.80;93.20;;;;;;5008954;28;20801;-68
2021/09/06 01:00:02;;;;;;;17.25;11.15;;;9.70;93.00;;;;;;5005742;28;20034;-70
2021/09/06 01:02:28;;;;;;;20.10;11.70;;;9.70;93.00;;;;;;5005753;28;20028;-69
2021/09/06 01:04:53;;;;;;;18.75;12.10;;;9.70;93.30;;;;;;5007999;28;20470;-69
2021/09/06 01:07:19;;;;;;;17.15;10.57;;;9.60;93.60;;;;;;5009714;28;20069;-69
2021/09/06 01:09:45;;;;;;;18.65;11.50;;;9.60;93.40;;;;;;5002003;28;20631;-69
2021/09/06 01:12:11;;;;;;;22.92;12.32;;;9.60;93.10;;;;;;5009335;28;20089;-69
2021/09/06 01:14:37;;;;;;;18.08;11.02;;;9.50;93.20;;;;;;5002027;28;20029;-69
2021/09/06 01:17:03;;;;;;;18.55;11.52;;;9.50;92.70;;;;;;5005132;28;20057;-69
2021/09/06 01:19:29;;;;;;;20.40;11.68;;;9.50;92.90;;;;;;5007427;28;20045;-68
2021/09/06 01:21:55;;;;;;;22.55;13.07;;;9.50;93.00;;;;;;5001744;28;20523;-68
2021/09/06 01:24:20;;;;;;;20.55;13.10;;;9.50;93.70;;;;;;4998593;28;20059;-69
2021/09/06 01:26:47;;;;;;;25.35;12.95;;;9.50;93.70;;;;;;5002209;28;20540;-69
2021/09/06 01:29:13;;;;;;;22.77;12.10;;;9.50;94.20;;;;;;5004758;28;20030;-69
2021/09/06 01:31:39;;;;;;;22.38;13.05;;;9.50;94.60;;;;;;5007046;28;20378;-70
2021/09/06 01:34:06;;;;;;;23.92;13.82;;;9.50;94.20;;;;;;5002850;28;20062;-69
2021/09/06 01:36:32;;;;;;;26.88;13.98;;;9.50;94.50;;;;;;5004607;28;20068;-68
2021/09/06 01:38:57;;;;;;;31.35;16.05;;;9.50;94.40;;;;;;5001174;28;20062;-69
2021/09/06 01:41:23;;;;;;;31.08;15.90;;;9.50;94.60;;;;;;5010622;28;20425;-69
2021/09/06 01:43:49;;;;;;;30.92;15.43;;;9.50;95.00;;;;;;4988438;28;20045;-68
2021/09/06 01:46:15;;;;;;;34.42;16.65;;;9.50;94.70;;;;;;5007003;28;20033;-69
2021/09/06 01:48:40;;;;;;;29.23;15.05;;;9.50;94.90;;;;;;5002947;28;20017;-69
2021/09/06 01:51:06;;;;;;;30.83;15.80;;;9.50;95.10;;;;;;5007628;28;20030;-70
2021/09/06 01:53:31;;;;;;;28.25;15.43;;;9.50;95.40;;;;;;5000791;28;20040;-69
2021/09/06 01:55:57;;;;;;;24.38;13.52;;;9.50;95.20;;;;;;5006164;28;20107;-69
2021/09/06 01:58:22;;;;;;;24.70;14.30;;;9.40;94.70;;;;;;5000212;28;20125;-69
2021/09/06 02:00:48;;;;;;;30.65;15.88;;;9.40;94.40;;;;;;4999138;28;20026;-69
2021/09/06 02:03:14;;;;;;;29.95;17.23;;;9.40;94.60;;;;;;5008898;28;20036;-69
2021/09/06 02:05:39;;;;;;;35.25;17.75;;;9.50;95.20;;;;;;5007049;28;20029;-69
2021/09/06 02:08:05;;;;;;;26.10;14.75;;;9.50;95.60;;;;;;5001426;28;20037;-68
2021/09/06 02:10:31;;;;;;;25.13;14.27;;;9.40;95.40;;;;;;5003142;28;20105;-69
2021/09/06 02:12:56;;;;;;;23.80;13.75;;;9.40;95.40;;;;;;5002900;28;20033;-69
2021/09/06 02:15:22;;;;;;;23.00;12.18;;;9.30;94.90;;;;;;5003793;28;20467;-69
2021/09/06 02:17:48;;;;;;;23.52;13.35;;;9.30;94.30;;;;;;5004639;28;20032;-69
2021/09/06 02:20:13;;;;;;;19.75;12.73;;;9.30;94.20;;;;;;5008352;28;20049;-69
2021/09/06 02:22:39;;;;;;;20.13;12.38;;;9.20;93.60;;;;;;5008205;28;20526;-68
2021/09/06 02:25:06;;;;;;;25.85;12.23;;;9.10;93.80;;;;;;5006322;28;20049;-69
2021/09/06 02:27:31;;;;;;;24.35;12.95;;;9.10;93.80;;;;;;4998595;28;20048;-68
2021/09/06 02:29:57;;;;;;;22.13;12.90;;;9.10;93.90;;;;;;5003362;28;20673;-69
2021/09/06 02:32:23;;;;;;;19.92;12.73;;;9.10;94.30;;;;;;4992669;28;20037;-70
2021/09/06 02:34:49;;;;;;;21.42;12.93;;;9.00;93.90;;;;;;5004587;28;20026;-69
2021/09/06 02:37:15;;;;;;;26.00;13.52;;;9.00;93.80;;;;;;5003132;28;20084;-69
2021/09/06 02:39:41;;;;;;;26.02;14.82;;;9.00;93.70;;;;;;5013169;28;20563;-69
2021/09/06 02:42:06;;;;;;;24.13;12.52;;;9.00;94.10;;;;;;5010486;28;20034;-68
2021/09/06 02:44:32;;;;;;;22.27;12.32;;;9.00;94.30;;;;;;5007410;28;20029;-68
2021/09/06 02:46:58;;;;;;;21.25;12.85;;;9.00;94.30;;;;;;5004769;28;20030;-69
2021/09/06 02:49:23;;;;;;;21.88;13.40;;;9.00;94.20;;;;;;5002994;28;20037;-69
2021/09/06 02:51:50;;;;;;;27.25;14.18;;;8.90;93.90;;;;;;5001755;28;20029;-68
2021/09/06 02:54:16;;;;;;;27.08;14.18;;;8.90;94.10;;;;;;5004157;28;20045;-68
2021/09/06 02:56:42;;;;;;;23.40;14.48;;;9.00;94.50;;;;;;5004762;28;20034;-68
2021/09/06 02:59:08;;;;;;;25.65;14.73;;;8.90;94.70;;;;;;5002370;28;20029;-68
2021/09/06 03:01:33;;;;;;;25.65;15.30;;;8.90;94.70;;;;;;4997272;28;20042;-68
2021/09/06 03:03:59;;;;;;;22.73;14.07;;;8.90;94.80;;;;;;5006338;28;20040;-69
2021/09/06 03:06:25;;;;;;;27.95;15.48;;;8.80;94.30;;;;;;5006103;28;20018;-69
2021/09/06 03:08:50;;;;;;;28.95;16.08;;;8.90;94.50;;;;;;5007401;28;20035;-68
2021/09/06 03:11:23;;;;;;;33.50;17.30;;;8.90;94.90;;;;;;5000130;28;20034;-69
2021/09/06 03:13:49;;;;;;;34.13;18.17;;;8.90;95.00;;;;;;5003068;28;20026;-69
2021/09/06 03:16:14;;;;;;;32.22;16.05;;;8.80;95.10;;;;;;5003481;28;20018;-68
2021/09/06 03:18:40;;;;;;;25.63;15.75;;;8.80;95.00;;;;;;5000651;28;20041;-69
2021/09/06 03:21:05;;;;;;;24.92;14.20;;;8.80;94.60;;;;;;5000713;28;20030;-68
2021/09/06 03:23:31;;;;;;;24.27;13.02;;;8.80;94.50;;;;;;5014361;28;20029;-69
2021/09/06 03:25:56;;;;;;;19.90;12.52;;;8.70;94.00;;;;;;5008394;28;20417;-69
2021/09/06 03:28:22;;;;;;;24.45;12.77;;;8.70;94.10;;;;;;5004209;28;20155;-69
2021/09/06 03:30:48;;;;;;;24.27;13.43;;;8.70;94.40;;;;;;4999580;28;22517;-68
2021/09/06 03:33:14;;;;;;;23.45;13.80;;;8.60;94.50;;;;;;5004700;28;20034;-68
2021/09/06 03:35:42;;;;;;;26.83;14.52;;;8.60;94.20;;;;;;5003043;28;20033;-68
2021/09/06 03:38:09;;;;;;;28.85;15.15;;;8.60;94.50;;;;;;5000718;28;20050;-68
2021/09/06 03:40:34;;;;;;;23.77;14.18;;;8.60;94.70;;;;;;5007162;28;20052;-68
2021/09/06 03:43:00;;;;;;;24.25;14.30;;;8.60;94.70;;;;;;5005265;28;20034;-68
2021/09/06 03:45:25;;;;;;;27.95;14.05;;;8.50;94.40;;;;;;5006944;28;20045;-69
2021/09/06 03:47:52;;;;;;;25.77;15.60;;;8.50;94.50;;;;;;5002106;28;20029;-68
2021/09/06 03:50:18;;;;;;;26.52;14.55;;;8.50;94.60;;;;;;5000044;28;20018;-69
2021/09/06 03:52:43;;;;;;;30.98;16.13;;;8.50;94.80;;;;;;5001968;28;20107;-68
2021/09/06 03:55:09;;;;;;;24.63;14.10;;;8.50;94.50;;;;;;5001937;28;20062;-69
2021/09/06 03:57:35;;;;;;;20.85;12.95;;;8.50;94.80;;;;;;5000775;28;20409;-68
2021/09/06 04:00:01;;;;;;;23.10;13.45;;;8.50;94.50;;;;;;5004060;28;20508;-69
2021/09/06 04:02:27;;;;;;;27.45;13.77;;;8.40;94.20;;;;;;5000326;28;20657;-69
2021/09/06 04:04:54;;;;;;;22.02;12.80;;;8.40;94.50;;;;;;5002998;28;20041;-69
2021/09/06 04:07:20;;;;;;;23.52;13.23;;;8.40;94.70;;;;;;5000880;28;20575;-69
2021/09/06 04:09:45;;;;;;;26.55;15.02;;;8.30;94.40;;;;;;5004488;28;20026;-68
2021/09/06 04:12:11;;;;;;;27.80;14.48;;;8.30;94.70;;;;;;5004498;28;20025;-69
2021/09/06 04:14:37;;;;;;;27.17;15.20;;;8.30;94.80;;;;;;4995912;28;20027;-69
2021/09/06 04:17:03;;;;;;;23.92;14.63;;;8.30;94.70;;;;;;5002236;28;20440;-68
2021/09/06 04:19:31;;;;;;;27.10;15.05;;;8.20;94.50;;;;;;5002200;28;20030;-68
2021/09/06 04:22:01;;;;;;;28.55;14.80;;;8.20;94.40;;;;;;4996379;28;20038;-63
2021/09/06 04:24:27;;;;;;;26.02;14.43;;;8.20;94.80;;;;;;5000308;28;20022;-63
2021/09/06 04:26:54;;;;;;;25.50;13.82;;;8.20;94.70;;;;;;4998423;28;20192;-64
2021/09/06 04:29:19;;;;;;;28.33;15.32;;;8.20;94.40;;;;;;4999786;28;20022;-63
2021/09/06 04:31:45;;;;;;;30.67;15.25;;;8.20;94.50;;;;;;5002750;28;20028;-61
2021/09/06 04:34:11;;;;;;;31.58;14.50;;;8.20;94.90;;;;;;5004264;28;20025;-63
2021/09/06 04:36:36;;;;;;;34.88;17.35;;;8.10;94.80;;;;;;4999857;28;20022;-63
2021/09/06 04:39:03;;;;;;;28.77;14.75;;;8.10;94.40;;;;;;5004957;28;20108;-64
2021/09/06 04:41:28;;;;;;;24.40;14.27;;;8.10;94.30;;;;;;5001780;28;20040;-63
2021/09/06 04:43:54;;;;;;;23.67;13.98;;;8.10;94.10;;;;;;5001740;28;20481;-62
2021/09/06 04:46:20;;;;;;;28.27;15.15;;;8.10;93.90;;;;;;4988106;28;20026;-63
2021/09/06 04:48:46;;;;;;;27.30;14.68;;;8.20;94.50;;;;;;4998616;28;20030;-62
2021/09/06 04:51:11;;;;;;;27.85;15.10;;;8.20;94.90;;;;;;5001234;28;20487;-64
2021/09/06 04:53:40;;;;;;;33.80;16.92;;;8.20;95.10;;;;;;4994102;28;20115;-63
2021/09/06 04:56:08;;;;;;;34.33;16.73;;;8.20;95.30;;;;;;5007847;28;20107;-62
2021/09/06 04:58:34;;;;;;;30.38;16.05;;;8.20;95.20;;;;;;5000395;28;20141;-64
2021/09/06 05:00:59;;;;;;;30.42;16.05;;;8.20;95.10;;;;;;4997000;28;20167;-62
2021/09/06 05:03:25;;;;;;;30.92;16.23;;;8.20;94.80;;;;;;4998214;28;20061;-64
2021/09/06 05:05:51;;;;;;;35.58;17.10;;;8.30;94.80;;;;;;4999025;28;20042;-62
2021/09/06 05:08:16;;;;;;;30.08;16.45;;;8.30;94.70;;;;;;5000690;28;20025;-64
2021/09/06 05:10:42;;;;;;;36.00;16.70;;;8.30;94.40;;;;;;4992542;28;20030;-63
2021/09/06 05:13:07;;;;;;;32.03;16.80;;;8.40;94.80;;;;;;4999348;28;20018;-64
2021/09/06 05:15:33;;;;;;;35.10;17.95;;;8.40;94.80;;;;;;4999426;28;20053;-63
2021/09/06 05:17:59;;;;;;;37.83;17.90;;;8.40;94.50;;;;;;4996518;28;20105;-63
2021/09/06 05:20:26;;;;;;;38.55;19.73;;;8.50;94.80;;;;;;5006082;28;20038;-63
2021/09/06 05:22:52;;;;;;;40.30;18.27;;;8.50;95.20;;;;;;5003514;28;20030;-63
2021/09/06 05:25:18;;;;;;;40.40;18.58;;;8.60;95.70;;;;;;4998214;28;20740;-63
2021/09/06 05:27:44;;;;;;;41.13;19.25;;;8.60;95.80;;;;;;5004723;28;20470;-63
2021/09/06 05:30:10;;;;;;;36.80;19.38;;;8.70;95.80;;;;;;4997248;28;20105;-62
2021/09/06 05:32:36;;;;;;;43.30;20.10;;;8.70;95.80;;;;;;4999512;28;20103;-65
2021/09/06 05:35:02;;;;;;;48.10;21.52;;;8.80;95.80;;;;;;5007215;28;20029;-64
2021/09/06 05:37:27;;;;;;;43.95;20.60;;;8.90;96.30;;;;;;5004567;28;20091;-63
2021/09/06 05:39:53;;;;;;;44.33;20.83;;;9.00;96.60;;;;;;5001839;28;20030;-62
2021/09/06 05:42:19;;;;;;;39.92;19.75;;;9.00;96.60;;;;;;5002127;28;20036;-64
2021/09/06 05:44:49;;;;;;;36.35;18.38;;;9.10;96.40;;;;;;5004558;28;20776;-63
2021/09/06 05:47:18;;;;;;;36.75;17.13;;;9.10;96.20;;;;;;4999734;28;20028;-64
2021/09/06 05:49:44;;;;;;;37.58;17.02;;;9.20;96.10;;;;;;5005474;28;20816;-64
2021/09/06 05:52:09;;;;;;;34.78;17.65;;;9.30;96.10;;;;;;4999869;28;20109;-65
2021/09/06 05:54:35;;;;;;;39.38;17.52;;;9.30;96.10;;;;;;5001350;28;20022;-65
2021/09/06 05:57:01;;;;;;;33.28;17.45;;;9.50;96.20;;;;;;5009987;28;20504;-62
2021/09/06 05:59:26;;;;;;;42.63;18.50;;;9.50;96.00;;;;;;4997120;28;20034;-63
2021/09/06 06:01:52;;;;;;;34.20;18.20;;;9.60;95.80;;;;;;5002526;28;20030;-65
2021/09/06 06:04:18;;;;;;;32.33;16.60;;;9.60;95.50;;;;;;5005412;28;20053;-65
2021/09/06 06:06:44;;;;;;;37.50;18.02;;;9.70;95.50;;;;;;5006212;28;20022;-65
2021/09/06 06:09:09;;;;;;;39.55;19.45;;;9.80;95.60;;;;;;5001521;28;20784;-64
2021/09/06 06:11:38;;;;;;;43.38;19.73;;;10.00;96.00;;;;;;4997576;28;20076;-65
2021/09/06 06:14:05;;;;;;;40.78;20.38;;;10.10;96.30;;;;;;5002318;28;20057;-64
2021/09/06 06:16:30;;;;;;;41.75;21.80;;;10.20;96.40;;;;;;5008765;28;20056;-63
2021/09/06 06:18:57;;;;;;;47.88;21.20;;;10.30;96.30;;;;;;4999589;28;20065;-63
2021/09/06 06:21:22;;;;;;;39.00;20.25;;;10.50;96.50;;;;;;5002309;28;20029;-64
2021/09/06 06:23:48;;;;;;;51.22;24.42;;;10.60;96.50;;;;;;4999859;28;20022;-65
2021/09/06 06:26:14;;;;;;;56.20;24.65;;;10.80;96.70;;;;;;5004990;28;20113;-65
2021/09/06 06:28:40;;;;;;;44.25;23.15;;;10.90;96.60;;;;;;5001021;28;20060;-65
2021/09/06 06:31:05;;;;;;;52.35;23.55;;;11.00;96.60;;;;;;5002126;28;20575;-65
2021/09/06 06:33:31;;;;;;;51.22;23.85;;;11.20;96.90;;;;;;5005519;28;20649;-63
2021/09/06 06:35:58;;;;;;;43.15;22.70;;;11.40;97.00;;;;;;5007049;28;20068;-65
2021/09/06 06:38:24;;;;;;;36.67;20.02;;;11.50;96.90;;;;;;5006386;28;20034;-64
2021/09/06 06:40:50;;;;;;;48.72;21.52;;;11.60;96.80;;;;;;5002001;28;20026;-65
2021/09/06 06:43:16;;;;;;;50.72;22.38;;;11.70;96.80;;;;;;4997021;28;20057;-64
2021/09/06 06:45:41;;;;;;;40.30;21.70;;;11.90;96.80;;;;;;5002349;28;20025;-65
2021/09/06 06:48:07;;;;;;;42.53;21.42;;;11.90;96.70;;;;;;5001216;28;20041;-65
2021/09/06 06:50:33;;;;;;;42.05;21.40;;;12.10;96.80;;;;;;4996784;28;20037;-65
2021/09/06 06:52:58;;;;;;;41.05;21.70;;;12.30;96.80;;;;;;5001360;28;20034;-64
2021/09/06 06:55:24;;;;;;;46.30;20.48;;;12.40;96.70;;;;;;5003379;28;20106;-65
2021/09/06 06:57:50;;;;;;;32.85;17.83;;;12.60;96.50;;;;;;5002936;28;20099;-65
2021/09/06 07:00:16;;;;;;;29.92;17.25;;;12.70;96.00;;;;;;5004381;28;20036;-65
2021/09/06 07:02:42;;;;;;;28.77;16.60;;;12.80;95.40;;;;;;5000276;28;20430;-65
2021/09/06 07:05:08;;;;;;;29.80;15.98;;;12.90;95.10;;;;;;5002286;28;20018;-65
2021/09/06 07:07:34;;;;;;;33.58;16.52;;;12.90;95.00;;;;;;5002520;28;20033;-62
2021/09/06 07:09:59;;;;;;;29.85;14.93;;;13.00;94.90;;;;;;4996040;28;20034;-63
2021/09/06 07:12:25;;;;;;;27.25;15.32;;;13.10;94.80;;;;;;5007983;28;20026;-64
2021/09/06 07:14:51;;;;;;;28.92;16.00;;;13.20;94.40;;;;;;5004365;28;20486;-63
2021/09/06 07:17:16;;;;;;;26.98;13.95;;;13.30;94.20;;;;;;4997380;28;20478;-65
2021/09/06 07:19:42;;;;;;;25.77;13.82;;;13.50;92.40;;;;;;5001977;28;20468;-62
2021/09/06 07:22:08;;;;;;;24.63;13.55;;;13.50;92.30;;;;;;4998707;28;20581;-62
2021/09/06 07:24:34;;;;;;;22.42;13.95;;;13.60;92.80;;;;;;4995581;28;20046;-65
2021/09/06 07:27:00;;;;;;;23.73;13.48;;;13.70;92.10;;;;;;5008812;28;20037;-64
2021/09/06 07:29:26;;;;;;;24.13;12.70;;;13.80;91.10;;;;;;4999056;28;20104;-64
2021/09/06 07:31:53;;;;;;;25.10;13.30;;;13.90;91.30;;;;;;5000202;28;20878;-62
2021/09/06 07:34:18;;;;;;;20.00;13.32;;;14.00;91.00;;;;;;4998226;28;20034;-64
2021/09/06 07:36:44;;;;;;;23.73;13.05;;;14.10;91.20;;;;;;4994001;28;20026;-63
2021/09/06 07:39:11;;;;;;;20.70;13.10;;;14.30;91.00;;;;;;5003346;28;20628;-63
2021/09/06 07:41:36;;;;;;;20.45;12.65;;;14.40;91.00;;;;;;5005573;28;20060;-63
2021/09/06 07:44:03;;;;;;;20.35;13.05;;;14.50;90.30;;;;;;5003680;28;20069;-63
2021/09/06 07:46:28;;;;;;;22.70;12.15;;;14.60;89.80;;;;;;5000551;28;20539;-62
2021/09/06 07:48:54;;;;;;;19.42;12.23;;;14.70;90.20;;;;;;4999042;28;20058;-63
2021/09/06 07:51:20;;;;;;;24.73;13.45;;;14.80;89.10;;;;;;5004533;28;20030;-63
2021/09/06 07:53:45;;;;;;;21.30;12.02;;;15.00;88.50;;;;;;4995817;28;20033;-63
2021/09/06 07:56:11;;;;;;;21.17;12.27;;;15.10;87.80;;;;;;4993806;28;20029;-62
2021/09/06 07:58:37;;;;;;;18.52;12.18;;;15.40;87.50;;;;;;4998937;28;20457;-62
2021/09/06 08:01:02;;;;;;;18.38;11.32;;;15.70;86.10;;;;;;5000081;28;20113;-64
2021/09/06 08:03:28;;;;;;;19.67;12.02;;;16.00;84.80;;;;;;4998406;28;20122;-65
2021/09/06 08:05:53;;;;;;;17.15;10.88;;;16.20;85.20;;;;;;4999837;28;20026;-64
2021/09/06 08:08:19;;;;;;;17.58;10.63;;;16.40;83.80;;;;;;5004311;28;20026;-64
2021/09/06 08:10:45;;;;;;;16.73;10.43;;;16.50;83.70;;;;;;4997754;28;20022;-65
2021/09/06 08:13:11;;;;;;;17.58;9.73;;;16.70;83.40;;;;;;4994201;28;20429;-65
2021/09/06 08:15:36;;;;;;;19.33;10.43;;;16.70;81.50;;;;;;5000996;28;20574;-64
2021/09/06 08:18:04;;;;;;;19.73;9.23;;;16.60;81.30;;;;;;4994421;28;20034;-65
2021/09/06 08:20:29;;;;;;;18.60;10.65;;;16.60;80.80;;;;;;5001687;28;20052;-65
2021/09/06 08:22:55;;;;;;;19.98;9.98;;;16.90;81.00;;;;;;4993982;28;20445;-64
2021/09/06 08:25:21;;;;;;;15.60;10.27;;;17.00;80.40;;;;;;5001877;28;20032;-65
2021/09/06 08:27:47;;;;;;;18.92;11.45;;;17.20;79.90;;;;;;5001835;28;20029;-64
2021/09/06 08:30:14;;;;;;;17.45;10.70;;;17.40;80.00;;;;;;5003573;28;20061;-65
2021/09/06 08:32:41;;;;;;;17.42;10.30;;;17.40;78.60;;;;;;4996134;28;20025;-65
2021/09/06 08:35:07;;;;;;;14.07;9.65;;;17.60;78.20;;;;;;5000512;28;20030;-65
2021/09/06 08:37:33;;;;;;;15.50;9.70;;;17.60;77.50;;;;;;4985657;28;20032;-64
2021/09/06 08:39:59;;;;;;;17.90;10.18;;;17.80;77.10;;;;;;5001118;28;20034;-65
2021/09/06 08:42:24;;;;;;;14.73;9.40;;;17.80;76.50;;;;;;4997894;28;20037;-65
2021/09/06 08:44:50;;;;;;;15.57;9.50;;;17.70;75.80;;;;;;5000691;28;20511;-64
2021/09/06 08:47:16;;;;;;;16.52;9.18;;;17.50;76.30;;;;;;4997451;28;20022;-65
2021/09/06 08:49:44;;;;;;;15.73;9.27;;;17.10;76.70;;;;;;5001560;28;20110;-64
2021/09/06 08:52:09;;;;;;;16.38;9.85;;;17.00;77.80;;;;;;5009687;28;20032;-65
2021/09/06 08:54:35;;;;;;;17.83;11.07;;;16.90;78.30;;;;;;5004310;28;20030;-64
2021/09/06 08:57:02;;;;;;;16.60;9.73;;;17.20;77.90;;;;;;5005802;28;20081;-65
2021/09/06 08:59:28;;;;;;;16.70;10.90;;;17.50;78.30;;;;;;5000425;28;20100;-65
2021/09/06 09:01:53;;;;;;;15.77;10.15;;;18.00;78.00;;;;;;5013902;28;20025;-66
2021/09/06 09:04:25;;;;;;;21.20;10.63;;;18.10;76.40;;;;;;5005821;28;20022;-65
2021/09/06 09:06:59;;;;;;;17.48;10.75;;;18.30;77.00;;;;;;5005437;28;20029;-65
2021/09/06 09:09:30;;;;;;;12.52;8.80;;;18.60;75.50;;;;;;5001523;28;20021;-66
2021/09/06 09:12:06;;;;;;;16.88;10.32;;;18.90;73.60;;;;;;5001588;28;20405;-65
2021/09/06 09:14:34;;;;;;;16.35;10.35;;;19.10;69.00;;;;;;5006247;28;20057;-66
2021/09/06 09:17:00;;;;;;;14.57;9.23;;;19.10;71.10;;;;;;5008722;28;20034;-64
2021/09/06 09:19:26;;;;;;;18.00;9.02;;;19.30;69.90;;;;;;4996869;28;20063;-65
2021/09/06 09:21:54;;;;;;;15.60;9.93;;;19.30;69.00;;;;;;5009298;28;20045;-65
2021/09/06 09:24:21;;;;;;;13.30;9.30;;;19.40;69.30;;;;;;5005479;28;20038;-65
2021/09/06 09:27:00;;;;;;;17.08;9.93;;;19.40;70.40;;;;;;4998803;28;20025;-66
2021/09/06 09:29:27;;;;;;;15.55;9.80;;;19.40;69.60;;;;;;4999048;28;20042;-64
2021/09/06 09:31:57;;;;;;;15.00;9.90;;;19.70;68.00;;;;;;5005458;28;20026;-66
2021/09/06 09:34:23;;;;;;;14.60;9.40;;;19.80;66.80;;;;;;5007720;28;20037;-67
2021/09/06 09:36:53;;;;;;;14.13;9.07;;;20.00;66.70;;;;;;5009141;28;20069;-65
2021/09/06 09:39:20;;;;;;;15.27;8.93;;;19.70;65.30;;;;;;5005727;28;20027;-65
2021/09/06 09:41:49;;;;;;;14.32;8.82;;;19.80;65.90;;;;;;5004967;28;20030;-65
2021/09/06 09:44:25;;;;;;;14.77;9.38;;;19.80;67.00;;;;;;5006577;28;20050;-65
2021/09/06 09:47:03;;;;;;;13.50;8.35;;;19.70;65.00;;;;;;5004235;28;20026;-65
2021/09/06 09:49:33;;;;;;;14.20;8.32;;;20.40;66.00;;;;;;4996035;28;20066;-65
2021/09/06 09:51:59;;;;;;;14.53;7.27;;;20.50;65.80;;;;;;5005309;28;20041;-65
2021/09/06 09:54:25;;;;;;;12.32;7.82;;;20.60;62.20;;;;;;5007249;28;20395;-66
2021/09/06 09:56:51;;;;;;;15.15;8.50;;;20.60;61.60;;;;;;5003660;28;20030;-65
2021/09/06 09:59:18;;;;;;;14.07;7.90;;;20.70;61.90;;;;;;5003756;28;20128;-65
2021/09/06 10:01:51;;;;;;;13.23;9.15;;;20.90;61.10;;;;;;5004089;28;20025;-65
2021/09/06 10:04:21;;;;;;;14.45;9.18;;;20.80;58.70;;;;;;5004007;28;20030;-65
2021/09/06 10:06:48;;;;;;;12.38;8.40;;;20.80;60.10;;;;;;4994679;28;20041;-64
2021/09/06 10:09:14;;;;;;;14.38;9.15;;;21.30;58.10;;;;;;4999586;28;20025;-65
2021/09/06 10:11:42;;;;;;;17.17;9.43;;;21.60;58.10;;;;;;5000438;28;20022;-64
2021/09/06 10:14:18;;;;;;;15.65;8.60;;;21.90;58.20;;;;;;5002378;28;20116;-65
2021/09/06 10:16:47;;;;;;;11.57;8.23;;;22.00;59.30;;;;;;5006164;28;20579;-65
2021/09/06 10:19:12;;;;;;;12.63;8.30;;;21.70;58.00;;;;;;5001577;28;20026;-66
2021/09/06 10:21:41;;;;;;;12.05;8.13;;;21.20;57.10;;;;;;4999302;28;20021;-65
2021/09/06 10:24:18;;;;;;;17.55;8.82;;;21.00;56.60;;;;;;5014604;28;20038;-62
2021/09/06 10:26:45;;;;;;;13.15;8.55;;;21.00;58.90;;;;;;5009004;28;20026;-62
2021/09/06 10:29:20;;;;;;;13.43;8.73;;;20.60;60.10;;;;;;5004560;28;20523;-62
2021/09/06 10:32:02;;;;;;;15.75;8.38;;;20.50;60.20;;;;;;5004021;28;20099;-61
2021/09/06 10:34:30;;;;;;;12.90;9.10;;;20.70;59.50;;;;;;5008075;28;20081;-62
2021/09/06 10:37:00;;;;;;;15.02;7.93;;;20.50;61.80;;;;;;5004936;28;20603;-63
2021/09/06 10:39:26;;;;;;;11.93;7.95;;;20.80;60.70;;;;;;5005598;28;20514;-62
2021/09/06 10:41:53;;;;;;;15.52;7.95;;;21.00;61.20;;;;;;4996659;28;20100;-63
2021/09/06 10:44:20;;;;;;;16.77;8.65;;;21.20;62.80;;;;;;5000657;28;20034;-62
2021/09/06 10:47:06;;;;;;;12.77;8.43;;;21.30;58.90;;;;;;4992303;28;20025;-65
2021/09/06 10:49:32;;;;;;;14.60;7.90;;;21.40;60.50;;;;;;5003298;28;20076;-64
2021/09/06 10:51:59;;;;;;;15.90;8.82;;;21.20;58.20;;;;;;4985994;28;20505;-65
2021/09/06 10:54:24;;;;;;;13.35;8.02;;;21.20;58.60;;;;;;4999309;28;20033;-64
2021/09/06 10:56:51;;;;;;;14.13;8.25;;;21.30;60.50;;;;;;5009117;28;20030;-64
2021/09/06 10:59:24;;;;;;;14.25;9.05;;;21.80;60.30;;;;;;5004782;28;20034;-66
2021/09/06 11:01:54;;;;;;;15.02;8.57;;;22.20;58.60;;;;;;5007009;28;20045;-65
2021/09/06 11:04:23;;;;;;;14.68;8.35;;;22.00;58.00;;;;;;4986675;28;20030;-66
2021/09/06 11:06:57;;;;;;;12.77;8.85;;;21.70;58.10;;;;;;5003233;28;20032;-61
2021/09/06 11:09:28;;;;;;;12.55;7.85;;;21.50;57.90;;;;;;4996649;28;20032;-61
2021/09/06 11:12:04;;;;;;;14.88;7.85;;;21.10;57.30;;;;;;4996762;28;20117;-63
2021/09/06 11:14:43;;;;;;;14.65;8.50;;;21.00;58.30;;;;;;5002157;28;20065;-63
2021/09/06 11:17:23;;;;;;;17.30;9.05;;;21.30;58.90;;;;;;4999817;28;20034;-64
2021/09/06 11:19:51;;;;;;;14.63;8.38;;;21.60;58.30;;;;;;5003649;28;20025;-63
2021/09/06 11:22:18;;;;;;;17.58;8.77;;;21.80;57.40;;;;;;4990789;28;20420;-64
2021/09/06 11:24:45;;;;;;;12.07;8.35;;;21.30;58.20;;;;;;4997726;28;20511;-63
2021/09/06 11:27:33;;;;;;;11.32;7.72;;;21.20;60.10;;;;;;5003613;28;20033;-64
2021/09/06 11:30:00;;;;;;;11.82;7.40;;;20.90;59.70;;;;;;5003890;28;20389;-64
2021/09/06 11:32:26;;;;;;;12.38;7.40;;;21.00;59.50;;;;;;5000924;28;20033;-63
2021/09/06 11:35:12;;;;;;;12.57;6.43;;;21.20;59.40;;;;;;5001596;28;20275;-64
2021/09/06 11:37:37;;;;;;;11.88;6.50;;;21.30;58.30;;;;;;5000355;28;20053;-64
2021/09/06 11:40:06;;;;;;;10.85;6.68;;;21.60;57.90;;;;;;5004276;28;20381;-64
2021/09/06 11:42:32;;;;;;;10.98;6.65;;;22.20;56.10;;;;;;5001333;28;20037;-64
2021/09/06 11:45:00;;;;;;;11.70;6.93;;;22.20;55.70;;;;;;5002795;28;20030;-64
2021/09/06 11:47:28;;;;;;;13.93;7.68;;;22.50;54.70;;;;;;5002713;28;20052;-65
2021/09/06 11:49:55;;;;;;;12.57;7.10;;;22.90;54.70;;;;;;5002324;28;20120;-62
2021/09/06 11:52:34;;;;;;;11.02;6.72;;;23.00;55.20;;;;;;5001141;28;20038;-64
2021/09/06 11:55:00;;;;;;;13.18;7.82;;;23.10;53.50;;;;;;4995468;28;20037;-63
2021/09/06 11:57:32;;;;;;;14.15;7.85;;;23.10;53.30;;;;;;5003108;28;20036;-63
2021/09/06 11:59:58;;;;;;;12.60;6.97;;;23.20;53.70;;;;;;4999742;28;20026;-64
2021/09/06 12:02:24;;;;;;;9.90;7.10;;;23.00;53.80;;;;;;4997974;28;20131;-63
2021/09/06 12:05:08;;;;;;;13.20;7.25;;;23.00;52.00;;;;;;5019766;28;20393;-63
2021/09/06 12:07:46;;;;;;;12.68;6.55;;;23.00;53.30;;;;;;4992020;28;20130;-62
2021/09/06 12:10:22;;;;;;;10.80;6.63;;;23.00;53.20;;;;;;5002761;28;20026;-63
2021/09/06 12:12:59;;;;;;;10.30;6.90;;;23.50;53.70;;;;;;4995919;28;20032;-62
2021/09/06 12:15:25;;;;;;;14.88;7.30;;;23.40;52.10;;;;;;4996664;28;20039;-62
2021/09/06 12:17:50;;;;;;;10.02;6.78;;;23.20;53.20;;;;;;5002383;28;20037;-62
2021/09/06 12:20:16;;;;;;;13.63;7.28;;;23.10;51.90;;;;;;5003468;28;20022;-68
2021/09/06 12:22:53;;;;;;;14.95;7.95;;;23.40;53.50;;;;;;4998081;28;20060;-63
2021/09/06 12:25:23;;;;;;;14.07;7.30;;;23.70;51.50;;;;;;5006136;28;20522;-63
2021/09/06 12:27:49;;;;;;;;;;;23.70;52.00;;;;;;5004650;28;20547;-64
2021/09/06 12:30:15;;;;;;;9.52;6.68;;;24.00;52.60;;;;;;5007080;28;19980;-64
2021/09/06 12:32:41;;;;;;;12.95;7.82;;;23.80;52.00;;;;;;5004799;28;20054;-63
2021/09/06 12:35:06;;;;;;;11.40;6.60;;;23.30;52.60;;;;;;5007845;28;20127;-64